Time;durP1;ratioP1;P1;durP2;ratioP2;P2;SDS_P1;SDS_P2;PMS_P1;PMS_P2;Temp;Humidity;BMP_temperature;BMP_pressure;BME280_temperature;BME280_humidity;BME280_pressure;Samples;Min_cycle;Max_cycle;Signal;HPM_P1;HPM_P2
2022/11/20 09:27:06;;;;;;;;;2.00;1.00;;;;;;;;5083459;27;13396;-70
2022/11/20 09:29:32;;;;;;;;;1.50;1.50;;;;;;;;5086134;28;12136;-71
2022/11/20 09:31:57;;;;;;;;;0.75;0.00;;;;;;;;5086176;28;11430;-69
2022/11/20 09:34:22;;;;;;;;;0.00;0.00;;;;;;;;5086283;28;8911;-72
2022/11/20 09:36:47;;;;;;;;;0.00;0.00;;;;;;;;5086225;28;8808;-73
2022/11/20 09:39:13;;;;;;;;;0.00;0.00;;;;;;;;5098376;28;8782;-70
2022/11/20 09:41:41;;;;;;;;;0.00;0.00;;;;;;;;5104855;28;8786;-75
2022/11/20 09:44:15;;;;;;;;;0.00;0.00;;;;;;;;5087053;28;8890;-72
2022/11/20 17:38:55;;;;;;;;;13.00;11.00;;;;;;;;5081633;28;13475;-69
2022/11/20 17:41:21;;;;;;;;;15.75;14.00;;;;;;;;5087132;28;12232;-69
2022/11/20 17:43:47;;;;;;;;;86.50;66.00;;;;;;;;5086622;28;8790;-70
2022/11/20 17:46:13;;;;;;;;;24.50;23.00;;;;;;;;5086288;28;8883;-68
2022/11/20 17:48:43;;;;;;;;;16.75;14.00;;;;;;;;5085319;28;8837;-72
2022/11/20 17:51:09;;;;;;;;;15.75;14.75;;;;;;;;5084683;28;12315;-69
2022/11/20 17:53:36;;;;;;;;;16.50;14.00;;;;;;;;5086244;28;11563;-71
2022/11/20 17:58:46;;;;;;;;;23.25;19.00;;;;;;;;5082177;28;11509;-70
2022/11/20 18:01:11;;;;;;;;;17.25;11.75;;;;;;;;5084719;28;11635;-73
2022/11/20 18:03:36;;;;;;;;;19.50;15.25;;;;;;;;5016514;28;10340;-69
2022/11/20 18:06:19;;;;;;;;;17.50;15.00;;;;;;;;5045547;28;8926;-68
2022/11/20 18:08:45;;;;;;;;;15.25;12.00;;;;;;;;5043649;28;8823;-72
2022/11/20 18:11:14;;;;;;;;;13.50;10.00;;;;;;;;5044520;28;11693;-71
2022/11/20 18:16:26;;;;;;;;;13.00;11.25;;;;;;;;5045174;28;11552;-70
2022/11/20 18:18:55;;;;;;;;;11.50;11.00;;;;;;;;5043354;28;11541;-68
2022/11/20 18:21:21;;;;;;;;;11.25;9.00;;;;;;;;5044258;28;11553;-71
2022/11/20 18:23:47;;;;;;;;;12.00;9.50;;;;;;;;5045511;28;11516;-70
2022/11/20 18:26:12;;;;;;;;;11.75;11.75;;;;;;;;5045257;28;8835;-71
2022/11/20 18:28:37;;;;;;;;;14.00;12.00;;;;;;;;5043171;28;11687;-72
2022/11/20 18:31:07;;;;;;;;;24.25;19.75;;;;;;;;5045271;28;8804;-71
2022/11/20 18:33:33;;;;;;;;;30.50;27.00;;;;;;;;5045396;28;8894;-69
2022/11/20 18:36:07;;;;;;;;;17.75;17.00;;;;;;;;5040270;28;11718;-72
2022/11/20 18:38:32;;;;;;;;;14.00;11.50;;;;;;;;5058363;28;8945;-72
2022/11/20 18:40:57;;;;;;;;;21.50;16.50;;;;;;;;5064218;28;11540;-70
2022/11/20 18:46:06;;;;;;;;;77.00;59.67;;;;;;;;5077114;28;8816;-71
2022/11/20 18:48:31;;;;;;;;;24.75;24.75;;;;;;;;5067371;28;8961;-71
2022/11/20 18:51:06;;;;;;;;;67.00;55.33;;;;;;;;5052896;28;8820;-71
2022/11/20 18:53:33;;;;;;;;;21.75;17.75;;;;;;;;5051162;28;8809;-70
2022/11/20 18:56:02;;;;;;;;;39.75;38.00;;;;;;;;4994475;28;10995;-71
2022/11/20 18:58:27;;;;;;;;;70.67;56.33;;;;;;;;5045655;28;11501;-72
2022/11/20 19:00:52;;;;;;;;;23.25;18.25;;;;;;;;5049071;28;8804;-73
2022/11/20 19:03:17;;;;;;;;;20.50;18.75;;;;;;;;5048994;28;8786;-73
2022/11/20 19:05:43;;;;;;;;;16.50;13.50;;;;;;;;5049423;28;8900;-73
2022/11/20 19:08:08;;;;;;;;;22.25;21.00;;;;;;;;5050026;28;8863;-70
2022/11/20 19:10:36;;;;;;;;;26.25;19.75;;;;;;;;5052660;28;8940;-69
2022/11/20 19:13:01;;;;;;;;;22.50;16.00;;;;;;;;5051749;28;9069;-75
2022/11/20 19:15:27;;;;;;;;;16.25;12.25;;;;;;;;5068669;28;11561;-74
2022/11/20 19:17:52;;;;;;;;;18.00;18.00;;;;;;;;5069725;28;8927;-74
2022/11/20 19:20:18;;;;;;;;;19.00;14.00;;;;;;;;5062592;28;8852;-73
2022/11/20 19:22:43;;;;;;;;;9.25;8.50;;;;;;;;5050991;28;8814;-69
2022/11/20 19:25:08;;;;;;;;;18.75;15.00;;;;;;;;5031238;28;8834;-71
2022/11/20 19:27:34;;;;;;;;;14.50;14.50;;;;;;;;5052058;28;8852;-70
2022/11/20 19:30:02;;;;;;;;;18.25;15.00;;;;;;;;5070877;28;8794;-74
2022/11/20 19:32:27;;;;;;;;;21.50;14.25;;;;;;;;5075464;28;9592;-71
2022/11/20 19:34:53;;;;;;;;;19.50;15.50;;;;;;;;5089926;28;11492;-72
2022/11/20 19:37:21;;;;;;;;;16.00;12.50;;;;;;;;5088791;28;9588;-74
2022/11/20 19:39:46;;;;;;;;;15.50;15.50;;;;;;;;5091074;28;8814;-73
2022/11/20 19:42:11;;;;;;;;;20.75;18.75;;;;;;;;5088765;28;11493;-71
2022/11/20 19:44:37;;;;;;;;;18.25;17.00;;;;;;;;5090765;28;8933;-73
2022/11/20 19:47:04;;;;;;;;;20.50;18.75;;;;;;;;5088007;28;8887;-74
2022/11/20 19:49:29;;;;;;;;;24.50;20.00;;;;;;;;5090584;28;8821;-73
2022/11/20 19:51:55;;;;;;;;;22.00;17.25;;;;;;;;5090610;28;11499;-76
2022/11/20 19:54:20;;;;;;;;;22.00;18.25;;;;;;;;5090706;28;8808;-72
2022/11/20 19:56:47;;;;;;;;;23.00;19.00;;;;;;;;5090041;28;8806;-73
2022/11/20 19:59:13;;;;;;;;;23.50;19.25;;;;;;;;5091289;28;8956;-72
2022/11/20 20:01:38;;;;;;;;;23.50;19.25;;;;;;;;5084978;28;11605;-74
2022/11/20 20:04:04;;;;;;;;;29.50;24.50;;;;;;;;5091590;28;8809;-72
2022/11/20 20:06:30;;;;;;;;;24.00;23.00;;;;;;;;5072201;28;8838;-73
2022/11/20 20:09:02;;;;;;;;;28.25;21.00;;;;;;;;5071465;28;12257;-72
2022/11/20 20:11:28;;;;;;;;;25.00;21.25;;;;;;;;5088987;28;11523;-72
2022/11/20 20:13:55;;;;;;;;;21.75;21.75;;;;;;;;5095726;28;11466;-73
2022/11/20 20:16:21;;;;;;;;;24.00;18.50;;;;;;;;5075254;28;12357;-73
2022/11/20 20:18:46;;;;;;;;;20.50;18.75;;;;;;;;5083113;28;11508;-75
2022/11/20 20:21:13;;;;;;;;;103.50;85.00;;;;;;;;5091386;28;11511;-73
2022/11/20 20:23:39;;;;;;;;;25.25;22.00;;;;;;;;5093218;28;8894;-74
2022/11/20 20:26:06;;;;;;;;;20.00;18.50;;;;;;;;5093386;28;11449;-72
2022/11/20 20:28:32;;;;;;;;;15.50;15.00;;;;;;;;5086102;28;9047;-74
2022/11/20 20:31:04;;;;;;;;;10.50;10.50;;;;;;;;5074461;28;11422;-73
2022/11/20 20:33:29;;;;;;;;;15.00;14.00;;;;;;;;5085361;28;8772;-74
2022/11/20 20:35:55;;;;;;;;;17.00;14.25;;;;;;;;5090721;28;11481;-73
2022/11/20 20:38:21;;;;;;;;;15.50;14.25;;;;;;;;5092172;28;8814;-73
2022/11/20 20:40:49;;;;;;;;;15.00;15.00;;;;;;;;5073744;28;8830;-70
2022/11/20 20:43:15;;;;;;;;;19.00;15.75;;;;;;;;5089379;28;11517;-71
2022/11/20 20:45:47;;;;;;;;;19.00;12.75;;;;;;;;5089197;28;11440;-71
2022/11/20 20:48:16;;;;;;;;;19.50;17.00;;;;;;;;5089443;28;8806;-71
2022/11/20 20:50:42;;;;;;;;;14.00;14.00;;;;;;;;5085318;28;11492;-72
2022/11/20 20:53:08;;;;;;;;;17.75;12.00;;;;;;;;5086621;28;11444;-71
2022/11/20 20:55:34;;;;;;;;;11.75;11.75;;;;;;;;5089690;28;8902;-70
2022/11/20 20:57:59;;;;;;;;;14.00;12.00;;;;;;;;5092780;28;11475;-71
2022/11/20 21:00:25;;;;;;;;;14.75;14.50;;;;;;;;5091376;28;11539;-70
2022/11/20 21:02:50;;;;;;;;;14.75;11.00;;;;;;;;5090433;28;9526;-73
2022/11/20 21:05:16;;;;;;;;;16.50;16.50;;;;;;;;5075251;28;8834;-74
2022/11/20 21:10:25;;;;;;;;;22.75;18.00;;;;;;;;5093054;28;8810;-74
2022/11/20 21:12:50;;;;;;;;;23.25;18.50;;;;;;;;5085958;28;11490;-72
2022/11/20 21:15:16;;;;;;;;;19.00;15.25;;;;;;;;5083782;28;8957;-75
2022/11/20 21:17:43;;;;;;;;;17.25;14.00;;;;;;;;5091371;28;8828;-75
2022/11/20 21:21:57;;;;;;;;;20.25;18.75;;;;;;;;5093230;28;8812;-75
2022/11/20 21:22:54;;;;;;;;;18.25;13.75;;;;;;;;5078710;28;11504;-74
2022/11/20 21:25:19;;;;;;;;;15.25;13.00;;;;;;;;5080828;28;11469;-77
2022/11/20 21:27:44;;;;;;;;;12.25;11.50;;;;;;;;5092371;28;8830;-73
2022/11/20 21:30:10;;;;;;;;;18.25;14.75;;;;;;;;5090663;28;8829;-74
2022/11/20 21:32:35;;;;;;;;;16.75;14.25;;;;;;;;5090145;28;8940;-74
2022/11/20 21:35:00;;;;;;;;;14.25;12.50;;;;;;;;5087080;28;8814;-73
2022/11/20 21:37:26;;;;;;;;;15.25;14.00;;;;;;;;5092862;28;9446;-75
2022/11/20 21:39:51;;;;;;;;;15.00;14.75;;;;;;;;5093355;28;8778;-73
2022/11/20 21:42:16;;;;;;;;;16.00;15.75;;;;;;;;5092912;28;8947;-74
2022/11/20 21:44:41;;;;;;;;;15.25;13.50;;;;;;;;5088361;28;8809;-74
2022/11/20 21:47:07;;;;;;;;;21.50;17.00;;;;;;;;5092377;28;8813;-74
2022/11/20 21:49:32;;;;;;;;;15.25;15.25;;;;;;;;5091290;28;8786;-74
2022/11/20 21:51:58;;;;;;;;;16.25;14.75;;;;;;;;5092092;28;9634;-74
2022/11/20 21:54:23;;;;;;;;;18.50;15.50;;;;;;;;5091321;28;8774;-74
2022/11/20 21:56:48;;;;;;;;;15.50;15.50;;;;;;;;5035311;28;9524;-75
2022/11/20 21:59:13;;;;;;;;;17.50;14.00;;;;;;;;5089078;28;8858;-74
2022/11/20 22:01:39;;;;;;;;;20.00;15.00;;;;;;;;5030447;28;10716;-73
2022/11/20 22:04:06;;;;;;;;;13.00;13.00;;;;;;;;5086169;28;8890;-73
2022/11/20 22:06:32;;;;;;;;;17.50;15.25;;;;;;;;5082335;28;8786;-73
2022/11/20 22:08:58;;;;;;;;;17.00;15.00;;;;;;;;5076759;28;11493;-75
2022/11/20 22:11:23;;;;;;;;;14.25;13.50;;;;;;;;5091703;28;11402;-74
2022/11/20 22:16:36;;;;;;;;;14.50;14.25;;;;;;;;5083091;28;8790;-74
2022/11/20 22:19:01;;;;;;;;;21.00;20.00;;;;;;;;5092395;28;12216;-74
2022/11/20 22:21:27;;;;;;;;;14.00;14.00;;;;;;;;5090631;28;11450;-73
2022/11/20 22:23:53;;;;;;;;;13.50;13.50;;;;;;;;5091371;28;8790;-74
2022/11/20 22:26:20;;;;;;;;;14.50;14.50;;;;;;;;5096200;28;11422;-74
2022/11/20 22:28:49;;;;;;;;;20.75;15.50;;;;;;;;5092430;28;8856;-73
2022/11/20 22:31:15;;;;;;;;;17.25;17.00;;;;;;;;5088017;28;12467;-73
2022/11/20 22:33:40;;;;;;;;;16.00;13.50;;;;;;;;5093832;28;11477;-74
2022/11/20 22:36:08;;;;;;;;;19.50;17.00;;;;;;;;5090576;28;8931;-74
2022/11/20 22:38:34;;;;;;;;;17.25;16.00;;;;;;;;5088688;28;8809;-74
2022/11/20 22:41:09;;;;;;;;;7.25;5.00;;;;;;;;5095938;28;11533;-73
2022/11/20 22:43:35;;;;;;;;;20.00;13.00;;;;;;;;5087934;28;8944;-74
2022/11/20 22:46:07;;;;;;;;;17.25;13.75;;;;;;;;5093840;28;11503;-75
2022/11/20 22:48:34;;;;;;;;;13.00;13.00;;;;;;;;5071755;28;8857;-72
2022/11/20 22:51:06;;;;;;;;;15.50;13.25;;;;;;;;5090259;28;11515;-76
2022/11/20 22:53:32;;;;;;;;;14.25;12.75;;;;;;;;5087804;28;11738;-73
2022/11/20 22:55:58;;;;;;;;;17.00;15.00;;;;;;;;5090445;28;11609;-75
2022/11/20 22:58:23;;;;;;;;;17.75;12.00;;;;;;;;5091752;28;8836;-75
2022/11/20 23:00:49;;;;;;;;;10.25;10.25;;;;;;;;5092047;28;8912;-74
2022/11/20 23:03:15;;;;;;;;;15.50;12.50;;;;;;;;5092135;28;8809;-74
2022/11/20 23:05:40;;;;;;;;;13.75;13.00;;;;;;;;5091470;28;8817;-74
2022/11/20 23:08:05;;;;;;;;;16.50;14.00;;;;;;;;5091786;28;8805;-74
2022/11/20 23:10:30;;;;;;;;;19.00;14.50;;;;;;;;5072827;28;8800;-74
2022/11/20 23:12:55;;;;;;;;;16.50;13.50;;;;;;;;5091730;28;8773;-75
2022/11/20 23:15:21;;;;;;;;;15.50;14.00;;;;;;;;5091536;28;8796;-74
2022/11/20 23:17:46;;;;;;;;;4.50;4.50;;;;;;;;5091526;28;8866;-74
2022/11/20 23:20:11;;;;;;;;;18.25;16.25;;;;;;;;5091851;28;8830;-75
2022/11/20 23:22:36;;;;;;;;;16.75;12.00;;;;;;;;5091457;28;8777;-74
2022/11/20 23:25:02;;;;;;;;;19.00;19.00;;;;;;;;5091384;28;8797;-73
2022/11/20 23:27:27;;;;;;;;;14.75;14.75;;;;;;;;5090811;28;8817;-75
2022/11/20 23:29:52;;;;;;;;;16.75;14.50;;;;;;;;5091003;28;8789;-74
2022/11/20 23:32:18;;;;;;;;;16.75;15.75;;;;;;;;5091631;28;8897;-74
2022/11/20 23:34:43;;;;;;;;;17.75;15.75;;;;;;;;5091366;28;8781;-74
2022/11/20 23:37:08;;;;;;;;;16.50;14.00;;;;;;;;5090986;28;9672;-75
2022/11/20 23:39:33;;;;;;;;;14.00;14.00;;;;;;;;5073036;28;8820;-75
2022/11/20 23:41:59;;;;;;;;;12.75;10.75;;;;;;;;5091588;28;8793;-75
2022/11/20 23:44:24;;;;;;;;;11.50;10.50;;;;;;;;5072856;28;8838;-75
2022/11/20 23:46:50;;;;;;;;;14.00;13.00;;;;;;;;5089453;28;8806;-75
2022/11/20 23:49:15;;;;;;;;;13.75;11.00;;;;;;;;5072819;28;8830;-75
2022/11/20 23:51:40;;;;;;;;;16.00;13.25;;;;;;;;5091034;28;8844;-74
2022/11/20 23:54:06;;;;;;;;;15.00;14.00;;;;;;;;5091043;28;8837;-75
2022/11/20 23:56:31;;;;;;;;;16.75;11.50;;;;;;;;5090860;28;8797;-75
2022/11/20 23:58:56;;;;;;;;;13.25;11.00;;;;;;;;5074465;28;9622;-75
